Time;durP1;ratioP1;P1;durP2;ratioP2;P2;SDS_P1;SDS_P2;PMS_P1;PMS_P2;Temp;Humidity;BMP_temperature;BMP_pressure;BME280_temperature;BME280_humidity;BME280_pressure;Samples;Min_cycle;Max_cycle;Signal;HPM_P1;HPM_P2
2023/02/17 00:01:19;;;;;;;41.47;21.90;;;;;;;6.32;100.00;101130.13;4927019;28;20039;-81
2023/02/17 00:03:47;;;;;;;34.83;19.50;;;;;;;6.31;100.00;101127.50;4951577;28;20046;-83
2023/02/17 00:06:16;;;;;;;32.77;19.90;;;;;;;6.29;100.00;101114.34;4934994;28;20073;-82
2023/02/17 00:08:43;;;;;;;32.07;18.60;;;;;;;6.26;100.00;101114.34;5004737;28;20048;-83
2023/02/17 00:11:10;;;;;;;32.90;18.50;;;;;;;6.31;100.00;101114.38;4942226;28;20503;-81
2023/02/17 00:13:37;;;;;;;38.77;22.43;;;;;;;6.33;100.00;101110.00;4967315;28;20043;-82
2023/02/17 00:16:08;;;;;;;34.07;19.57;;;;;;;6.29;100.00;101109.09;4937649;28;20042;-81
2023/02/17 00:18:35;;;;;;;33.13;19.57;;;;;;;6.21;100.00;101119.56;4932276;29;20078;-83
2023/02/17 00:21:13;;;;;;;34.43;21.10;;;;;;;6.23;100.00;101121.34;4945936;28;20046;-81
2023/02/17 00:23:40;;;;;;;33.43;19.90;;;;;;;6.13;100.00;101107.28;5037336;28;20228;-82
2023/02/17 00:26:07;;;;;;;38.00;20.90;;;;;;;6.13;100.00;101102.91;4938708;28;20533;-81
2023/02/17 00:28:36;;;;;;;34.00;18.83;;;;;;;6.18;100.00;101100.31;4953932;28;20049;-82
2023/02/17 00:31:07;;;;;;;38.37;21.83;;;;;;;6.14;100.00;101098.56;4934300;28;20047;-81
2023/02/17 00:33:39;;;;;;;33.72;19.55;;;;;;;6.06;100.00;101095.91;4936468;29;20047;-81
2023/02/17 00:36:09;;;;;;;32.83;19.40;;;;;;;5.97;100.00;101089.69;4937890;28;20047;-81
2023/02/17 00:38:36;;;;;;;37.57;21.57;;;;;;;6.03;100.00;101082.75;4952700;28;20051;-82
2023/02/17 00:41:02;;;;;;;39.23;21.43;;;;;;;6.04;100.00;101087.13;4954876;28;20058;-80
2023/02/17 00:43:32;;;;;;;37.57;21.37;;;;;;;5.91;100.00;101086.19;4953201;28;20062;-82
2023/02/17 00:45:59;;;;;;;39.17;21.27;;;;;;;5.86;100.00;101089.63;4969657;28;20126;-82
2023/02/17 00:48:26;;;;;;;39.30;21.33;;;;;;;5.83;100.00;101087.88;4970233;28;20053;-81
2023/02/17 00:50:53;;;;;;;38.20;22.93;;;;;;;5.89;100.00;101090.53;4932294;29;20515;-82
2023/02/17 00:53:20;;;;;;;39.40;22.23;;;;;;;5.89;100.00;101071.31;4932797;29;20415;-82
2023/02/17 00:55:47;;;;;;;37.53;22.97;;;;;;;5.80;100.00;101072.13;4935612;28;20043;-82
2023/02/17 00:58:13;;;;;;;39.37;21.43;;;;;;;5.89;100.00;101081.78;4961102;28;20047;-81
2023/02/17 01:00:40;;;;;;;42.47;22.70;;;;;;;5.84;100.00;101073.88;4951821;28;20039;-83
2023/02/17 01:03:07;;;;;;;37.67;22.97;;;;;;;5.79;100.00;101067.72;4955199;28;20053;-82
2023/02/17 01:05:44;;;;;;;39.60;23.13;;;;;;;5.84;100.00;101065.16;4942925;28;21507;-82
2023/02/17 01:08:11;;;;;;;37.83;20.87;;;;;;;5.80;100.00;101050.25;4967684;28;20069;-82
2023/02/17 01:10:39;;;;;;;40.27;23.10;;;;;;;5.73;100.00;101049.38;4957554;28;20062;-82
2023/02/17 01:13:06;;;;;;;43.73;24.53;;;;;;;5.83;100.00;101047.66;4980441;28;20046;-81
2023/02/17 01:15:59;;;;;;;44.30;25.40;;;;;;;5.85;100.00;101056.41;4979098;28;20047;-80
2023/02/17 01:18:26;;;;;;;38.53;23.37;;;;;;;5.77;100.00;101045.00;4970180;28;20081;-82
2023/02/17 01:20:53;;;;;;;46.20;26.70;;;;;;;5.80;100.00;101048.53;4968200;28;20702;-82
2023/02/17 01:23:20;;;;;;;44.63;25.73;;;;;;;5.75;100.00;101041.50;4958016;28;20046;-82
2023/02/17 01:25:49;;;;;;;42.07;25.27;;;;;;;5.82;100.00;101036.31;4953546;28;20047;-81
2023/02/17 01:28:20;;;;;;;46.83;26.00;;;;;;;5.80;100.00;101035.44;4953210;28;20046;-82
2023/02/17 01:30:47;;;;;;;46.10;27.27;;;;;;;5.81;100.00;101028.44;4981610;28;20059;-81
2023/02/17 01:33:14;;;;;;;47.27;26.77;;;;;;;5.88;100.00;101030.19;4949068;29;20110;-81
2023/02/17 01:35:41;;;;;;;50.67;27.30;;;;;;;5.83;100.00;101035.44;4950480;29;20162;-82
2023/02/17 01:38:07;;;;;;;45.70;25.17;;;;;;;5.77;100.00;101030.16;4979113;28;20053;-82
2023/02/17 01:40:34;;;;;;;43.83;25.37;;;;;;;5.77;100.00;101026.66;4967523;28;20111;-81
2023/02/17 01:43:02;;;;;;;45.97;25.93;;;;;;;5.77;100.00;101031.88;4936465;29;20051;-81
2023/02/17 01:45:37;;;;;;;48.53;26.33;;;;;;;5.85;100.00;101022.31;4970070;28;20046;-83
2023/02/17 01:48:11;;;;;;;48.77;26.90;;;;;;;5.77;100.00;101022.28;4947763;28;20047;-81
2023/02/17 01:50:59;;;;;;;50.72;26.73;;;;;;;5.81;100.00;101018.81;4965041;28;20399;-82
2023/02/17 01:53:32;;;;;;;53.17;26.40;;;;;;;5.87;100.00;101018.81;4948009;28;20058;-80
2023/02/17 01:55:59;;;;;;;46.30;26.40;;;;;;;5.77;100.00;101008.31;4967679;28;20055;-82
2023/02/17 01:58:33;;;;;;;46.07;27.43;;;;;;;5.81;100.00;100999.59;5004255;23;20105;31
2023/02/17 02:01:02;;;;;;;49.67;25.80;;;;;;;5.83;100.00;100997.84;4984915;28;20041;-82
2023/02/17 02:03:31;;;;;;;47.67;26.57;;;;;;;5.80;100.00;100992.56;4955995;28;20049;-82
2023/02/17 02:05:59;;;;;;;51.13;27.77;;;;;;;5.78;100.00;100984.69;4970426;28;20064;-84
2023/02/17 02:08:29;;;;;;;48.73;27.77;;;;;;;5.86;100.00;100966.38;4955849;28;20046;-83
2023/02/17 02:10:56;;;;;;;53.13;26.83;;;;;;;5.85;100.00;100959.38;4998576;28;22020;-83
2023/02/17 02:13:23;;;;;;;49.73;26.63;;;;;;;5.78;100.00;100952.38;4981890;28;20462;-82
2023/02/17 02:16:06;;;;;;;48.23;27.33;;;;;;;5.87;100.00;100947.16;4964010;28;20041;-82
2023/02/17 02:19:06;;;;;;;52.20;28.50;;;;;;;5.91;100.00;100944.59;4973479;28;20057;-81
2023/02/17 02:21:49;;;;;;;50.77;28.93;;;;;;;5.85;100.00;100931.41;4981020;28;20034;-83
2023/02/17 02:24:27;;;;;;;53.87;28.67;;;;;;;5.97;100.00;100927.09;4971186;28;20509;-84
2023/02/17 02:27:20;;;;;;;50.57;28.40;;;;;;;5.92;100.00;100919.25;4987959;28;20038;-82
2023/02/17 02:30:16;;;;;;;55.70;28.87;;;;;;;5.93;100.00;100914.00;4988080;28;20042;-83
2023/02/17 02:32:58;;;;;;;55.87;29.37;;;;;;;5.91;100.00;100922.75;4982249;28;20065;-83
2023/02/17 02:35:46;;;;;;;52.73;27.50;;;;;;;5.87;100.00;100916.56;4996419;28;20129;-83
2023/02/17 02:38:36;;;;;;;51.67;28.20;;;;;;;5.89;100.00;100899.13;4973622;28;20044;-83
2023/02/17 02:41:08;;;;;;;53.37;29.67;;;;;;;5.87;100.00;100892.97;4957325;28;20080;-82
2023/02/17 02:43:36;;;;;;;56.17;30.17;;;;;;;6.01;100.00;100884.28;4990320;28;20042;-84
2023/02/17 02:46:03;;;;;;;55.40;28.70;;;;;;;6.02;100.00;100881.66;4964438;28;20045;-83
2023/02/17 02:48:30;;;;;;;55.37;30.17;;;;;;;6.07;100.00;100887.81;4948406;28;20049;-81
2023/02/17 02:51:14;;;;;;;55.50;29.33;;;;;;;6.10;100.00;100869.44;4959895;28;20037;-83
2023/02/17 02:53:59;;;;;;;53.67;29.63;;;;;;;6.10;100.00;100881.69;4998693;28;20046;-85
2023/02/17 02:56:37;;;;;;;48.50;27.97;;;;;;;5.93;100.00;100879.91;4972245;28;20042;-84
2023/02/17 02:59:14;;;;;;;56.83;31.17;;;;;;;6.10;100.00;100872.06;4976510;28;20104;-84
2023/02/17 03:01:51;;;;;;;57.87;30.73;;;;;;;6.04;100.00;100874.69;4985671;28;20084;-84
2023/02/17 03:04:57;;;;;;;56.93;30.87;;;;;;;6.03;100.00;100864.19;4991016;28;20046;-83
2023/02/17 03:07:28;;;;;;;56.73;28.87;;;;;;;6.02;100.00;100865.94;4958243;28;20061;-83
2023/02/17 03:09:57;;;;;;;55.07;29.87;;;;;;;6.06;100.00;100859.84;4958157;28;20050;-84
2023/02/17 03:12:24;;;;;;;57.50;31.30;;;;;;;6.11;100.00;100860.69;4974380;28;20038;-84
2023/02/17 03:14:56;;;;;;;54.40;30.13;;;;;;;6.09;100.00;100856.34;4972786;28;20049;-84
2023/02/17 03:17:23;;;;;;;57.97;30.20;;;;;;;6.12;100.00;100846.69;4993134;28;20041;-84
2023/02/17 03:19:50;;;;;;;58.90;32.07;;;;;;;6.10;100.00;100858.09;4992866;28;20045;-83
2023/02/17 03:22:23;;;;;;;54.43;29.67;;;;;;;6.04;100.00;100864.19;4992753;28;20041;-85
2023/02/17 03:24:50;;;;;;;55.55;30.67;;;;;;;6.01;100.00;100856.31;4976768;28;20042;-84
2023/02/17 03:27:17;;;;;;;57.93;30.47;;;;;;;6.20;100.00;100854.59;4968221;28;20475;-84
2023/02/17 03:29:44;;;;;;;60.73;31.40;;;;;;;6.16;100.00;100850.22;4976301;28;20042;-85
2023/02/17 03:32:10;;;;;;;60.70;30.13;;;;;;;6.21;100.00;100848.47;4964001;28;20043;-84
2023/02/17 03:34:37;;;;;;;60.80;31.13;;;;;;;6.19;100.00;100848.47;4985135;28;20046;-85
2023/02/17 03:37:04;;;;;;;56.80;30.53;;;;;;;6.14;100.00;100842.34;4992668;28;20046;-84
2023/02/17 03:39:30;;;;;;;51.87;28.90;;;;;;;6.27;100.00;100839.72;4961405;28;20061;-84
2023/02/17 03:41:57;;;;;;;55.97;29.63;;;;;;;6.16;100.00;100837.09;4993138;28;20046;-84
2023/02/17 03:44:24;;;;;;;57.90;31.07;;;;;;;6.25;100.00;100830.97;4993129;28;20042;-85
2023/02/17 03:46:50;;;;;;;58.33;31.13;;;;;;;6.24;100.00;100818.75;4978223;28;20061;-83
2023/02/17 03:49:17;;;;;;;53.77;30.80;;;;;;;6.28;100.00;100818.72;4993100;28;20042;-84
2023/02/17 03:51:44;;;;;;;61.20;31.13;;;;;;;6.22;100.00;100829.22;4976854;28;20049;-83
2023/02/17 03:54:10;;;;;;;58.50;30.57;;;;;;;6.30;100.00;100830.09;4989479;28;20038;-82
2023/02/17 03:56:37;;;;;;;62.10;32.00;;;;;;;6.29;100.00;100824.84;4960813;28;20731;-82
2023/02/17 03:59:04;;;;;;;62.63;31.37;;;;;;;6.17;100.00;100816.13;4961263;28;20050;-83
2023/02/17 04:01:31;;;;;;;57.30;30.67;;;;;;;6.27;100.00;100808.25;4961328;28;20411;-82
2023/02/17 04:03:58;;;;;;;55.90;29.33;;;;;;;6.21;100.00;100802.09;4946572;28;20145;-83
2023/02/17 04:06:25;;;;;;;57.03;31.20;;;;;;;6.30;100.00;100806.47;4964241;28;20471;-82
2023/02/17 04:08:51;;;;;;;61.87;31.53;;;;;;;6.37;100.00;100809.97;4979575;28;20462;-83
2023/02/17 04:11:18;;;;;;;52.20;29.60;;;;;;;6.34;100.00;100810.00;4971954;28;20049;-84
2023/02/17 04:13:45;;;;;;;54.03;29.23;;;;;;;6.29;100.00;100803.84;4981547;28;20048;-82
2023/02/17 04:16:11;;;;;;;54.87;29.23;;;;;;;6.23;100.00;100807.38;4996251;28;20046;-83
2023/02/17 04:18:38;;;;;;;57.77;30.97;;;;;;;6.28;100.00;100794.25;4981150;28;20042;-83
2023/02/17 04:21:05;;;;;;;53.03;29.30;;;;;;;6.25;100.00;100796.88;4993559;28;20478;-82
2023/02/17 04:23:34;;;;;;;55.57;30.93;;;;;;;6.32;100.00;100798.63;4992104;28;20041;-82
2023/02/17 04:26:03;;;;;;;56.17;30.30;;;;;;;6.30;100.00;100805.59;4975677;28;20161;-84
2023/02/17 04:28:30;;;;;;;53.50;29.73;;;;;;;6.34;100.00;100796.88;4996347;28;20511;-83
2023/02/17 04:30:57;;;;;;;48.30;28.13;;;;;;;6.24;100.00;100787.25;4957744;28;20050;-85
2023/02/17 04:33:25;;;;;;;49.43;27.93;;;;;;;6.32;100.00;100782.88;4999150;28;20041;-83
2023/02/17 04:35:58;;;;;;;48.00;27.53;;;;;;;6.23;100.00;100773.28;4978829;28;20045;-84
2023/02/17 04:38:28;;;;;;;46.90;26.97;;;;;;;6.26;100.00;100781.13;4995878;28;20092;-84
2023/02/17 04:40:56;;;;;;;48.60;28.17;;;;;;;6.27;100.00;100788.13;4995893;28;20069;-83
2023/02/17 04:43:24;;;;;;;48.47;26.53;;;;;;;6.43;100.00;100781.09;4979186;28;20140;-84
2023/02/17 04:45:51;;;;;;;48.57;25.67;;;;;;;6.41;100.00;100764.50;4964972;28;20079;-83
2023/02/17 04:48:18;;;;;;;43.47;26.13;;;;;;;6.43;100.00;100760.97;4979322;28;20042;-83
2023/02/17 04:50:45;;;;;;;43.97;26.47;;;;;;;6.39;100.00;100761.88;4959849;28;20418;-85
2023/02/17 04:53:12;;;;;;;42.17;24.37;;;;;;;6.33;100.00;100761.00;4995204;28;20042;-83
2023/02/17 04:55:40;;;;;;;44.47;27.20;;;;;;;6.41;100.00;100767.13;4978962;28;20034;-85
2023/02/17 04:58:07;;;;;;;47.23;25.93;;;;;;;6.38;100.00;100775.84;4962289;28;20384;-85
2023/02/17 05:00:35;;;;;;;45.63;26.37;;;;;;;6.46;100.00;100773.22;4989439;28;20038;-84
2023/02/17 05:03:01;;;;;;;46.20;26.70;;;;;;;6.40;100.00;100768.00;4997029;28;20124;-85
2023/02/17 05:05:28;;;;;;;43.57;24.53;;;;;;;6.36;100.00;100767.13;5001378;28;20037;-83
2023/02/17 05:07:55;;;;;;;49.03;30.03;;;;;;;6.51;100.00;100774.09;4966857;28;20069;-84
2023/02/17 05:10:22;;;;;;;48.50;26.93;;;;;;;6.53;100.00;100766.22;4984788;28;20733;-84
2023/02/17 05:12:49;;;;;;;46.13;25.87;;;;;;;6.44;100.00;100764.47;4991651;28;20061;-85
2023/02/17 05:15:16;;;;;;;46.60;26.53;;;;;;;6.42;100.00;100769.75;5000977;28;20686;-83
2023/02/17 05:17:43;;;;;;;45.00;27.40;;;;;;;6.50;100.00;100761.84;5011798;28;20140;-83
2023/02/17 05:20:10;;;;;;;52.50;29.53;;;;;;;6.50;100.00;100761.84;4967835;28;20042;-86
2023/02/17 05:22:37;;;;;;;44.60;26.00;;;;;;;6.53;100.00;100755.72;4972716;28;20046;-83
2023/02/17 05:25:04;;;;;;;45.67;26.10;;;;;;;6.56;100.00;100740.84;4979602;28;20045;-85
2023/02/17 05:27:31;;;;;;;45.50;26.50;;;;;;;6.58;100.00;100740.84;4976103;28;20045;-87
2023/02/17 05:29:58;;;;;;;41.87;24.30;;;;;;;6.61;100.00;100739.06;4960319;28;20050;-85
2023/02/17 05:32:25;;;;;;;39.70;23.47;;;;;;;6.53;100.00;100734.72;4994422;28;20042;-85
2023/02/17 05:34:51;;;;;;;39.43;23.70;;;;;;;6.62;100.00;100732.06;4996282;28;20388;-85
2023/02/17 05:37:18;;;;;;;47.70;26.07;;;;;;;6.66;100.00;100739.94;4995084;28;20061;-85
2023/02/17 05:39:45;;;;;;;44.57;25.20;;;;;;;6.64;100.00;100732.91;4979839;28;20046;-84
2023/02/17 05:42:11;;;;;;;39.60;25.03;;;;;;;6.64;100.00;100733.81;4984497;28;20038;-86
2023/02/17 05:44:38;;;;;;;44.77;26.17;;;;;;;6.65;100.00;100732.94;4978878;28;20048;-86
2023/02/17 05:47:05;;;;;;;40.60;23.63;;;;;;;6.58;100.00;100738.22;4977474;28;20046;-86
2023/02/17 05:49:32;;;;;;;43.07;26.10;;;;;;;6.73;100.00;100730.28;4959695;28;20046;-83
2023/02/17 05:51:58;;;;;;;43.67;26.63;;;;;;;6.73;100.00;100735.53;4975868;28;20049;-83
2023/02/17 05:54:25;;;;;;;44.87;26.10;;;;;;;6.72;100.00;100725.88;4975658;28;20042;-84
2023/02/17 05:56:51;;;;;;;45.20;26.37;;;;;;;6.70;100.00;100718.03;4957710;28;20046;-84
2023/02/17 05:59:18;;;;;;;48.33;26.10;;;;;;;6.73;100.00;100704.03;4980929;28;20043;-84
2023/02/17 06:01:45;;;;;;;48.40;27.07;;;;;;;6.73;100.00;100697.03;4963931;28;20042;-84
2023/02/17 06:04:12;;;;;;;48.87;26.53;;;;;;;6.67;100.00;100702.28;4992950;28;20049;-86
2023/02/17 06:06:38;;;;;;;53.30;27.50;;;;;;;6.69;100.00;100699.66;4977209;28;20041;-85
2023/02/17 06:09:05;;;;;;;49.07;29.43;;;;;;;6.70;100.00;100691.78;4976354;28;20449;-85
2023/02/17 06:11:32;;;;;;;52.57;29.57;;;;;;;6.73;100.00;100699.66;4961576;28;20077;-85
2023/02/17 06:13:59;;;;;;;58.47;30.43;;;;;;;6.83;100.00;100707.50;4996557;28;20049;-85
2023/02/17 06:16:26;;;;;;;55.93;30.47;;;;;;;6.75;100.00;100705.78;4984275;28;20052;-87
2023/02/17 06:18:52;;;;;;;54.97;28.70;;;;;;;6.66;100.00;100697.94;4976925;28;20492;-85
2023/02/17 06:21:19;;;;;;;53.90;29.80;;;;;;;6.67;100.00;100701.44;4964908;28;20450;-86
2023/02/17 06:23:46;;;;;;;56.43;30.97;;;;;;;6.68;100.00;100695.28;4977995;28;20038;-85
2023/02/17 06:26:13;;;;;;;63.07;31.37;;;;;;;6.71;100.00;100682.16;4979381;28;20172;-84
2023/02/17 06:28:40;;;;;;;57.33;31.30;;;;;;;6.75;100.00;100674.25;4964916;28;20052;-83
2023/02/17 06:31:06;;;;;;;58.63;31.87;;;;;;;6.76;100.00;100681.25;4993526;28;20042;-83
2023/02/17 06:33:33;;;;;;;59.33;31.60;;;;;;;6.86;100.00;100689.09;4992809;28;20274;-83
2023/02/17 06:36:00;;;;;;;58.50;30.90;;;;;;;6.85;100.00;100680.34;4961316;28;20490;-84
2023/02/17 06:38:27;;;;;;;58.30;31.20;;;;;;;6.86;100.00;100674.19;4961330;28;20057;-83
2023/02/17 06:40:53;;;;;;;56.93;29.57;;;;;;;6.83;100.00;100668.97;4960090;28;20515;-84
2023/02/17 06:43:20;;;;;;;65.77;33.87;;;;;;;6.95;100.00;100670.66;4991712;28;20085;-83
2023/02/17 06:45:46;;;;;;;58.73;32.40;;;;;;;6.94;100.00;100668.91;4956867;28;20042;-83
2023/02/17 06:48:13;;;;;;;59.07;31.00;;;;;;;6.92;100.00;100663.66;4989974;28;20049;-84
2023/02/17 06:50:40;;;;;;;59.63;32.97;;;;;;;6.96;100.00;100657.50;4992244;28;20545;-83
2023/02/17 06:53:06;;;;;;;56.10;30.10;;;;;;;6.96;100.00;100659.25;4977142;28;20042;-84
2023/02/17 06:55:36;;;;;;;56.53;31.33;;;;;;;7.00;100.00;100656.63;4971870;28;20766;-84
2023/02/17 06:58:02;;;;;;;54.10;32.03;;;;;;;6.98;100.00;100655.75;4977538;28;20111;-83
2023/02/17 07:00:29;;;;;;;56.10;32.13;;;;;;;6.99;100.00;100662.75;4984361;28;20041;-85
2023/02/17 07:02:56;;;;;;;55.83;31.23;;;;;;;7.04;100.00;100662.72;4965818;28;20042;-83
2023/02/17 07:05:23;;;;;;;55.57;29.50;;;;;;;7.01;100.00;100661.00;4980351;28;20525;-82
2023/02/17 07:07:52;;;;;;;55.77;29.70;;;;;;;7.01;100.00;100662.75;4975463;28;20038;-83
2023/02/17 07:10:18;;;;;;;50.10;27.87;;;;;;;7.04;100.00;100662.72;4977342;28;20077;-84
2023/02/17 07:12:45;;;;;;;54.13;30.10;;;;;;;7.08;100.00;100653.09;4960470;28;20038;-83
2023/02/17 07:15:13;;;;;;;49.40;28.27;;;;;;;7.06;100.00;100660.94;4977226;28;20046;-83
2023/02/17 07:17:40;;;;;;;54.63;29.50;;;;;;;7.05;100.00;100661.81;4993499;28;20502;-86
2023/02/17 07:20:08;;;;;;;51.07;28.53;;;;;;;7.08;100.00;100656.56;4977335;28;20046;-85
2023/02/17 07:22:34;;;;;;;55.87;28.47;;;;;;;7.06;100.00;100650.44;4993347;28;20046;-85
2023/02/17 07:25:01;;;;;;;51.70;30.53;;;;;;;7.14;100.00;100655.63;4985206;28;20053;-83
2023/02/17 07:27:28;;;;;;;47.93;27.70;;;;;;;7.14;100.00;100661.78;4971323;28;20043;-85
2023/02/17 07:29:55;;;;;;;47.43;28.07;;;;;;;7.14;100.00;100656.50;4977035;28;20053;-85
2023/02/17 07:32:21;;;;;;;46.40;27.30;;;;;;;7.20;100.00;100658.25;4971169;28;20038;-85
2023/02/17 07:34:48;;;;;;;49.10;28.50;;;;;;;7.17;100.00;100646.00;4974007;28;20101;-83
2023/02/17 07:37:15;;;;;;;49.77;26.57;;;;;;;7.09;100.00;100637.31;4977220;28;20415;-85
2023/02/17 07:39:41;;;;;;;49.80;27.63;;;;;;;7.18;100.00;100629.34;4976895;28;20491;-84
2023/02/17 07:42:11;;;;;;;49.60;26.63;;;;;;;7.26;100.00;100634.56;4977801;28;20046;-85
2023/02/17 07:44:38;;;;;;;50.73;26.80;;;;;;;7.27;100.00;100638.94;4992930;28;20060;-85
2023/02/17 07:47:05;;;;;;;49.23;27.60;;;;;;;7.24;100.00;100637.19;4962758;28;20627;-86
2023/02/17 07:49:31;;;;;;;50.60;26.80;;;;;;;7.23;100.00;100645.97;4987081;28;20103;-85
2023/02/17 07:51:58;;;;;;;48.53;25.87;;;;;;;7.28;100.00;100641.53;4994359;28;20061;-84
2023/02/17 07:54:25;;;;;;;52.30;29.33;;;;;;;7.30;100.00;100636.25;4973273;28;20038;-85
2023/02/17 07:56:51;;;;;;;51.20;28.13;;;;;;;7.34;100.00;100640.63;4989864;28;20792;-86
2023/02/17 07:59:18;;;;;;;52.57;30.03;;;;;;;7.36;100.00;100649.38;5004438;28;20046;-84
2023/02/17 08:01:45;;;;;;;46.50;27.63;;;;;;;7.32;100.00;100635.38;4998039;28;20046;-86
2023/02/17 08:04:14;;;;;;;52.80;28.20;;;;;;;7.37;100.00;100637.97;4999989;28;20046;-86
2023/02/17 08:06:41;;;;;;;47.27;26.27;;;;;;;7.30;100.00;100641.53;4996471;28;20156;-85
2023/02/17 08:14:40;;;;;;;45.70;25.07;;;;;;;7.27;100.00;100624.03;4999034;28;20047;-86
2023/02/17 08:17:07;;;;;;;44.80;24.83;;;;;;;7.27;100.00;100626.66;4985305;28;20046;-86
2023/02/17 08:19:34;;;;;;;43.63;24.77;;;;;;;7.39;100.00;100616.91;4980284;28;20058;-85
2023/02/17 08:22:15;;;;;;;38.27;23.03;;;;;;;7.34;100.00;100614.34;4981420;28;20069;-85
2023/02/17 08:24:42;;;;;;;40.07;24.13;;;;;;;7.37;100.00;100608.19;4963262;28;20038;-87
2023/02/17 08:27:08;;;;;;;44.60;24.00;;;;;;;7.40;100.00;100597.63;4991550;28;20106;-86
2023/02/17 08:29:35;;;;;;;39.13;22.37;;;;;;;7.38;100.00;100600.28;5008212;28;20042;-86
2023/02/17 08:32:02;;;;;;;42.87;24.80;;;;;;;7.43;100.00;100580.09;4969654;28;20033;-85
2023/02/17 08:34:32;;;;;;;43.20;24.27;;;;;;;7.44;100.00;100580.97;4964533;28;20462;-86
2023/02/17 08:37:00;;;;;;;43.17;24.00;;;;;;;7.53;100.00;100580.88;4964306;28;20041;-86
2023/02/17 08:39:27;;;;;;;36.27;20.73;;;;;;;7.40;100.00;100561.75;4959182;28;20499;-87
2023/02/17 08:41:54;;;;;;;36.40;20.53;;;;;;;7.49;100.00;100548.50;4958913;28;20060;-84
2023/02/17 08:44:21;;;;;;;37.30;22.07;;;;;;;7.49;100.00;100550.28;4988908;28;20135;-85
2023/02/17 08:46:49;;;;;;;37.03;21.43;;;;;;;7.55;100.00;100547.56;4971903;28;20528;-84
2023/02/17 08:49:19;;;;;;;34.53;21.13;;;;;;;7.59;100.00;100541.41;4971509;28;20042;-84
2023/02/17 08:51:45;;;;;;;35.97;20.77;;;;;;;7.62;100.00;100536.09;4962910;28;20039;-84
2023/02/17 08:54:13;;;;;;;38.33;21.23;;;;;;;7.58;100.00;100539.66;4995790;28;20088;-83
2023/02/17 08:56:40;;;;;;;38.80;20.13;;;;;;;7.66;100.00;100540.44;4984817;28;20046;-83
2023/02/17 08:59:08;;;;;;;35.47;19.97;;;;;;;7.64;100.00;100531.69;4978271;28;20042;-85
2023/02/17 09:01:36;;;;;;;30.00;18.33;;;;;;;7.68;100.00;100528.16;4987914;28;20046;-84
2023/02/17 09:04:05;;;;;;;33.20;19.67;;;;;;;7.62;100.00;100525.56;5024056;28;20073;-84
2023/02/17 09:06:37;;;;;;;36.37;20.47;;;;;;;7.64;100.00;100523.78;5006882;28;20050;-84
2023/02/17 09:09:06;;;;;;;31.47;19.53;;;;;;;7.69;100.00;100513.25;5002127;28;20058;-82
2023/02/17 09:11:33;;;;;;;35.47;19.63;;;;;;;7.70;100.00;100505.34;4977250;28;20038;-82
2023/02/17 09:14:03;;;;;;;29.83;18.57;;;;;;;7.76;100.00;100512.28;4987281;28;20081;-83
2023/02/17 09:16:30;;;;;;;33.00;19.17;;;;;;;7.76;100.00;100496.50;4974406;28;20049;-83
2023/02/17 09:18:56;;;;;;;32.40;18.80;;;;;;;7.79;100.00;100497.34;5005047;28;20122;-83
2023/02/17 09:21:25;;;;;;;34.27;19.13;;;;;;;7.89;100.00;100496.31;4974095;28;20074;-83
2023/02/17 09:23:52;;;;;;;31.57;18.43;;;;;;;7.87;100.00;100479.69;4980307;28;20050;-84
2023/02/17 09:26:20;;;;;;;30.73;17.43;;;;;;;8.02;100.00;100475.16;5002386;28;20037;-83
2023/02/17 09:28:47;;;;;;;28.23;16.93;;;;;;;8.00;100.00;100476.94;4986771;28;20133;-83
2023/02/17 09:31:17;;;;;;;28.00;17.60;;;;;;;8.03;100.00;100475.13;5003363;28;20105;-83
2023/02/17 09:33:44;;;;;;;26.70;17.17;;;;;;;8.07;100.00;100471.56;5009291;28;20037;-84
2023/02/17 09:36:13;;;;;;;27.67;16.57;;;;;;;8.06;100.00;100475.06;5003815;28;20054;-83
2023/02/17 09:38:40;;;;;;;27.23;16.83;;;;;;;8.08;100.00;100481.22;4986438;28;20115;-83
2023/02/17 09:41:23;;;;;;;31.33;17.10;;;;;;;8.09;100.00;100487.34;4987215;28;20663;-83
2023/02/17 09:43:54;;;;;;;32.20;18.20;;;;;;;8.07;100.00;100483.84;4986092;28;20725;-84
2023/02/17 09:46:41;;;;;;;28.77;17.37;;;;;;;8.01;100.00;100469.03;4984997;28;20049;-84
2023/02/17 09:49:31;;;;;;;36.50;20.23;;;;;;;8.06;100.00;100464.53;4972730;28;20141;-84
2023/02/17 09:52:12;;;;;;;32.43;17.83;;;;;;;8.06;100.00;100451.38;4982357;28;20042;-84
2023/02/17 09:55:08;;;;;;;27.40;16.50;;;;;;;8.16;100.00;100441.63;4997036;28;20046;-84
2023/02/17 09:57:57;;;;;;;27.60;17.10;;;;;;;8.25;100.00;100445.91;4964014;28;20054;-83
2023/02/17 10:00:32;;;;;;;28.93;15.40;;;;;;;8.28;100.00;100438.81;4964629;28;20434;-84
2023/02/17 10:03:18;;;;;;;;;;;;;;;8.28;100.00;100436.19;4995146;28;20539;-83
2023/02/17 10:05:58;;;;;;;25.33;14.57;;;;;;;8.30;100.00;100425.63;4997393;28;19936;-84
2023/02/17 10:08:32;;;;;;;22.07;14.23;;;;;;;8.30;100.00;100434.38;4996535;28;20505;-83
2023/02/17 10:11:03;;;;;;;23.00;14.50;;;;;;;8.26;100.00;100421.31;4996306;28;20046;-83
2023/02/17 10:13:33;;;;;;;25.13;14.30;;;;;;;8.27;100.00;100412.53;4996288;28;20041;-84
2023/02/17 10:16:04;;;;;;;28.33;16.10;;;;;;;8.30;100.00;100408.06;4983375;28;20042;-83
2023/02/17 10:18:38;;;;;;;26.53;15.47;;;;;;;8.35;100.00;100397.53;4983159;28;20562;-82
2023/02/17 10:21:20;;;;;;;25.20;15.05;;;;;;;8.35;100.00;100382.59;4980941;28;20061;-82
2023/02/17 10:23:47;;;;;;;24.77;14.33;;;;;;;8.39;100.00;100388.66;4971702;28;20046;-81
2023/02/17 10:26:39;;;;;;;26.50;15.03;;;;;;;8.38;100.00;100374.63;4965911;28;20053;-82
2023/02/17 10:29:13;;;;;;;24.23;14.87;;;;;;;8.36;100.00;100367.66;4979896;28;20112;-82
2023/02/17 10:31:45;;;;;;;24.90;14.50;;;;;;;8.36;100.00;100373.81;4953768;28;20050;-83
2023/02/17 10:34:35;;;;;;;25.93;15.50;;;;;;;8.37;100.00;100364.13;4982877;28;20042;-83
2023/02/17 10:37:13;;;;;;;23.17;14.10;;;;;;;8.37;100.00;100372.03;4971075;28;20048;-83
2023/02/17 10:39:48;;;;;;;26.07;16.40;;;;;;;8.32;100.00;100361.53;4980004;28;20054;-82
2023/02/17 10:42:21;;;;;;;26.13;15.13;;;;;;;8.35;100.00;100358.91;4984362;28;20046;-82
2023/02/17 10:44:50;;;;;;;26.90;15.43;;;;;;;8.35;100.00;100350.13;4988830;28;20042;-83
2023/02/17 10:47:18;;;;;;;37.90;19.53;;;;;;;8.35;100.00;100355.41;4948127;28;20421;-80
2023/02/17 10:50:20;;;;;;;29.20;17.17;;;;;;;8.44;100.00;100358.75;4472423;28;20569;-89
2023/02/17 10:52:57;;;;;;;26.53;15.20;;;;;;;8.42;100.00;100355.28;4603990;28;21055;-83
2023/02/17 10:55:56;;;;;;;29.67;18.90;;;;;;;8.42;100.00;100336.00;4526718;28;20607;-82
2023/02/17 10:58:37;;;;;;;28.85;18.05;;;;;;;8.35;100.00;100332.59;4479650;28;20049;-85
2023/02/17 11:01:05;;;;;;;24.50;15.40;;;;;;;8.44;100.00;100313.13;4973721;28;20045;-84
2023/02/17 11:03:32;;;;;;;29.67;17.83;;;;;;;8.44;100.00;100313.13;5004801;28;20140;-84
2023/02/17 11:06:15;;;;;;;27.93;17.23;;;;;;;8.45;100.00;100312.22;5013309;28;20042;-84
2023/02/17 11:08:49;;;;;;;24.57;14.97;;;;;;;8.41;100.00;100300.91;5015064;28;20041;-84
2023/02/17 11:11:16;;;;;;;;;;;;;;;8.46;100.00;100282.38;5016234;28;20104;-84
2023/02/17 11:13:56;;;;;;;32.70;17.33;;;;;;;8.43;100.00;100293.84;5051529;28;19920;-84
2023/02/17 11:16:28;;;;;;;28.50;17.03;;;;;;;8.44;100.00;100285.03;4995293;28;20046;-85
2023/02/17 11:18:55;;;;;;;29.10;16.63;;;;;;;8.44;100.00;100285.03;5015865;28;20076;-84
2023/02/17 11:21:22;;;;;;;29.83;18.63;;;;;;;8.45;100.00;100276.25;5002316;28;20138;-85
2023/02/17 11:24:02;;;;;;;31.93;19.27;;;;;;;8.45;100.00;100268.34;4998916;28;20073;-85
2023/02/17 11:26:32;;;;;;;29.87;17.63;;;;;;;8.42;100.00;100267.53;4989635;28;20403;-83
2023/02/17 11:29:17;;;;;;;34.33;20.33;;;;;;;8.49;100.00;100260.38;5013844;28;20041;-84